sensor_id;sensor_type;location;lat;lon;timestamp;temperature;humidity
40996;DHT22;26723;57.478;12.066;2022-08-21T00:01:30;14.80;99.90
40996;DHT22;26723;57.478;12.066;2022-08-21T00:04:38;14.80;99.90
40996;DHT22;26723;57.478;12.066;2022-08-21T00:08:04;14.80;99.90
40996;DHT22;26723;57.478;12.066;2022-08-21T00:11:12;14.80;99.90
40996;DHT22;26723;57.478;12.066;2022-08-21T00:14:21;14.90;99.90
40996;DHT22;26723;57.478;12.066;2022-08-21T00:17:30;14.90;99.90
40996;DHT22;26723;57.478;12.066;2022-08-21T00:20:39;14.70;99.90
40996;DHT22;26723;57.478;12.066;2022-08-21T00:23:48;14.70;99.90
40996;DHT22;26723;57.478;12.066;2022-08-21T00:26:56;14.60;99.90
40996;DHT22;26723;57.478;12.066;2022-08-21T00:30:07;14.60;99.90
40996;DHT22;26723;57.478;12.066;2022-08-21T00:33:17;14.40;99.90
40996;DHT22;26723;57.478;12.066;2022-08-21T00:36:25;14.40;99.90
40996;DHT22;26723;57.478;12.066;2022-08-21T00:39:33;14.30;99.90
40996;DHT22;26723;57.478;12.066;2022-08-21T00:42:42;14.20;99.90
40996;DHT22;26723;57.478;12.066;2022-08-21T00:45:59;14.20;99.90
40996;DHT22;26723;57.478;12.066;2022-08-21T00:49:11;14.20;99.90
40996;DHT22;26723;57.478;12.066;2022-08-21T00:52:23;14.30;99.90
40996;DHT22;26723;57.478;12.066;2022-08-21T00:55:33;14.20;99.90
40996;DHT22;26723;57.478;12.066;2022-08-21T00:58:42;14.20;99.90
40996;DHT22;26723;57.478;12.066;2022-08-21T01:01:52;14.20;99.90
40996;DHT22;26723;57.478;12.066;2022-08-21T01:05:02;14.10;99.90
40996;DHT22;26723;57.478;12.066;2022-08-21T01:08:10;14.10;99.90
40996;DHT22;26723;57.478;12.066;2022-08-21T01:11:20;14.00;99.90
40996;DHT22;26723;57.478;12.066;2022-08-21T01:14:29;14.20;99.90
40996;DHT22;26723;57.478;12.066;2022-08-21T01:17:37;14.20;99.90
40996;DHT22;26723;57.478;12.066;2022-08-21T01:21:00;14.30;99.90
40996;DHT22;26723;57.478;12.066;2022-08-21T01:24:09;14.10;99.90
40996;DHT22;26723;57.478;12.066;2022-08-21T01:27:18;14.10;99.90
40996;DHT22;26723;57.478;12.066;2022-08-21T01:30:27;13.90;99.90
40996;DHT22;26723;57.478;12.066;2022-08-21T01:33:36;13.90;99.90
40996;DHT22;26723;57.478;12.066;2022-08-21T01:36:46;13.80;99.90
40996;DHT22;26723;57.478;12.066;2022-08-21T01:39:54;13.90;99.90
40996;DHT22;26723;57.478;12.066;2022-08-21T01:43:03;14.00;99.90
40996;DHT22;26723;57.478;12.066;2022-08-21T01:46:11;13.90;99.90
40996;DHT22;26723;57.478;12.066;2022-08-21T01:49:20;13.80;99.90
40996;DHT22;26723;57.478;12.066;2022-08-21T01:52:30;13.90;99.90
40996;DHT22;26723;57.478;12.066;2022-08-21T01:55:38;13.90;99.90
40996;DHT22;26723;57.478;12.066;2022-08-21T01:58:47;13.90;99.90
40996;DHT22;26723;57.478;12.066;2022-08-21T02:01:55;13.90;99.90
40996;DHT22;26723;57.478;12.066;2022-08-21T02:05:04;13.90;99.90
40996;DHT22;26723;57.478;12.066;2022-08-21T02:08:14;13.80;99.90
40996;DHT22;26723;57.478;12.066;2022-08-21T02:11:22;13.70;99.90
40996;DHT22;26723;57.478;12.066;2022-08-21T02:14:31;13.60;99.90
40996;DHT22;26723;57.478;12.066;2022-08-21T02:17:41;13.70;99.90
40996;DHT22;26723;57.478;12.066;2022-08-21T02:20:49;13.70;99.90
40996;DHT22;26723;57.478;12.066;2022-08-21T02:24:04;13.60;99.90
40996;DHT22;26723;57.478;12.066;2022-08-21T02:27:12;13.50;99.90
40996;DHT22;26723;57.478;12.066;2022-08-21T02:30:24;13.50;99.90
40996;DHT22;26723;57.478;12.066;2022-08-21T02:33:33;13.60;99.90
40996;DHT22;26723;57.478;12.066;2022-08-21T02:36:41;13.50;99.90
40996;DHT22;26723;57.478;12.066;2022-08-21T02:39:51;13.40;99.90
40996;DHT22;26723;57.478;12.066;2022-08-21T02:43:00;13.30;99.90
40996;DHT22;26723;57.478;12.066;2022-08-21T02:46:10;13.40;99.90
40996;DHT22;26723;57.478;12.066;2022-08-21T02:49:18;13.30;99.90
40996;DHT22;26723;57.478;12.066;2022-08-21T02:52:27;13.30;99.90
40996;DHT22;26723;57.478;12.066;2022-08-21T02:55:37;13.40;99.90
40996;DHT22;26723;57.478;12.066;2022-08-21T02:58:47;13.20;99.90
40996;DHT22;26723;57.478;12.066;2022-08-21T03:01:56;13.30;99.90
40996;DHT22;26723;57.478;12.066;2022-08-21T03:05:05;13.20;99.90
40996;DHT22;26723;57.478;12.066;2022-08-21T03:08:14;13.10;99.90
40996;DHT22;26723;57.478;12.066;2022-08-21T03:11:24;13.10;99.90
40996;DHT22;26723;57.478;12.066;2022-08-21T03:14:33;13.20;99.90
40996;DHT22;26723;57.478;12.066;2022-08-21T03:17:41;13.30;99.90
40996;DHT22;26723;57.478;12.066;2022-08-21T03:20:52;13.30;99.90
40996;DHT22;26723;57.478;12.066;2022-08-21T03:24:00;13.10;99.90
40996;DHT22;26723;57.478;12.066;2022-08-21T03:27:11;13.00;99.90
40996;DHT22;26723;57.478;12.066;2022-08-21T03:30:21;13.00;99.90
40996;DHT22;26723;57.478;12.066;2022-08-21T03:33:29;13.00;99.90
40996;DHT22;26723;57.478;12.066;2022-08-21T03:36:38;12.90;99.90
40996;DHT22;26723;57.478;12.066;2022-08-21T03:39:46;13.00;99.90
40996;DHT22;26723;57.478;12.066;2022-08-21T03:42:56;13.00;99.90
40996;DHT22;26723;57.478;12.066;2022-08-21T03:46:06;13.00;99.90
40996;DHT22;26723;57.478;12.066;2022-08-21T03:49:14;12.90;99.90
40996;DHT22;26723;57.478;12.066;2022-08-21T03:52:23;13.00;99.90
40996;DHT22;26723;57.478;12.066;2022-08-21T03:55:31;13.00;99.90
40996;DHT22;26723;57.478;12.066;2022-08-21T03:58:41;13.00;99.90
40996;DHT22;26723;57.478;12.066;2022-08-21T04:01:53;13.00;99.90
40996;DHT22;26723;57.478;12.066;2022-08-21T04:05:01;12.80;99.90
40996;DHT22;26723;57.478;12.066;2022-08-21T04:08:10;12.70;99.90
40996;DHT22;26723;57.478;12.066;2022-08-21T04:11:19;12.80;99.90
40996;DHT22;26723;57.478;12.066;2022-08-21T04:14:28;12.90;99.90
40996;DHT22;26723;57.478;12.066;2022-08-21T04:17:37;12.80;99.90
40996;DHT22;26723;57.478;12.066;2022-08-21T04:20:47;12.80;99.90
40996;DHT22;26723;57.478;12.066;2022-08-21T04:23:56;12.80;99.90
40996;DHT22;26723;57.478;12.066;2022-08-21T04:27:05;12.80;99.90
40996;DHT22;26723;57.478;12.066;2022-08-21T04:30:15;12.90;99.90
40996;DHT22;26723;57.478;12.066;2022-08-21T04:33:23;12.90;99.90
40996;DHT22;26723;57.478;12.066;2022-08-21T04:36:32;12.90;99.90
40996;DHT22;26723;57.478;12.066;2022-08-21T04:39:40;13.00;99.90
40996;DHT22;26723;57.478;12.066;2022-08-21T04:42:50;13.10;99.90
40996;DHT22;26723;57.478;12.066;2022-08-21T04:46:00;13.20;99.90
40996;DHT22;26723;57.478;12.066;2022-08-21T04:49:08;13.20;99.90
40996;DHT22;26723;57.478;12.066;2022-08-21T04:52:20;13.20;99.90
40996;DHT22;26723;57.478;12.066;2022-08-21T04:55:28;13.20;99.90
40996;DHT22;26723;57.478;12.066;2022-08-21T04:58:38;13.20;99.90
40996;DHT22;26723;57.478;12.066;2022-08-21T05:01:48;13.20;99.90
40996;DHT22;26723;57.478;12.066;2022-08-21T05:04:57;13.20;99.90
40996;DHT22;26723;57.478;12.066;2022-08-21T05:08:06;13.30;99.90
40996;DHT22;26723;57.478;12.066;2022-08-21T05:11:15;13.40;99.90
40996;DHT22;26723;57.478;12.066;2022-08-21T05:14:23;13.50;99.90
40996;DHT22;26723;57.478;12.066;2022-08-21T05:17:33;13.60;99.90
40996;DHT22;26723;57.478;12.066;2022-08-21T05:20:41;13.60;99.90
40996;DHT22;26723;57.478;12.066;2022-08-21T05:23:51;13.80;99.90
40996;DHT22;26723;57.478;12.066;2022-08-21T05:26:59;13.90;99.90
40996;DHT22;26723;57.478;12.066;2022-08-21T05:30:10;14.00;99.90
40996;DHT22;26723;57.478;12.066;2022-08-21T05:33:20;14.00;99.90
40996;DHT22;26723;57.478;12.066;2022-08-21T05:36:28;14.10;99.90
40996;DHT22;26723;57.478;12.066;2022-08-21T05:39:36;14.20;99.90
40996;DHT22;26723;57.478;12.066;2022-08-21T05:43:05;14.40;99.90
40996;DHT22;26723;57.478;12.066;2022-08-21T05:46:14;14.60;99.90
40996;DHT22;26723;57.478;12.066;2022-08-21T05:49:24;14.60;99.90
40996;DHT22;26723;57.478;12.066;2022-08-21T05:52:32;14.70;99.90
40996;DHT22;26723;57.478;12.066;2022-08-21T05:55:41;14.90;99.90
40996;DHT22;26723;57.478;12.066;2022-08-21T05:58:52;15.10;99.90
40996;DHT22;26723;57.478;12.066;2022-08-21T06:02:01;15.30;99.90
40996;DHT22;26723;57.478;12.066;2022-08-21T06:05:13;15.60;99.90
40996;DHT22;26723;57.478;12.066;2022-08-21T06:08:41;15.80;99.90
40996;DHT22;26723;57.478;12.066;2022-08-21T06:11:50;16.10;99.90
40996;DHT22;26723;57.478;12.066;2022-08-21T06:14:58;16.30;99.90
40996;DHT22;26723;57.478;12.066;2022-08-21T06:18:07;16.70;99.90
40996;DHT22;26723;57.478;12.066;2022-08-21T06:21:17;17.00;99.90
40996;DHT22;26723;57.478;12.066;2022-08-21T06:24:26;17.50;99.90
40996;DHT22;26723;57.478;12.066;2022-08-21T06:27:34;19.10;99.90
40996;DHT22;26723;57.478;12.066;2022-08-21T06:30:42;22.40;99.90
40996;DHT22;26723;57.478;12.066;2022-08-21T06:33:51;24.30;99.90
40996;DHT22;26723;57.478;12.066;2022-08-21T06:37:00;24.80;99.90
40996;DHT22;26723;57.478;12.066;2022-08-21T06:40:09;25.60;99.90
40996;DHT22;26723;57.478;12.066;2022-08-21T06:43:19;26.60;99.90
40996;DHT22;26723;57.478;12.066;2022-08-21T06:46:41;27.10;99.90
40996;DHT22;26723;57.478;12.066;2022-08-21T06:49:53;27.70;99.90
40996;DHT22;26723;57.478;12.066;2022-08-21T06:53:04;27.60;99.90
40996;DHT22;26723;57.478;12.066;2022-08-21T06:56:13;28.20;99.90
40996;DHT22;26723;57.478;12.066;2022-08-21T06:59:21;27.20;99.90
40996;DHT22;26723;57.478;12.066;2022-08-21T07:02:29;26.60;99.90
40996;DHT22;26723;57.478;12.066;2022-08-21T07:05:38;24.50;99.90
40996;DHT22;26723;57.478;12.066;2022-08-21T07:08:47;23.20;99.90
40996;DHT22;26723;57.478;12.066;2022-08-21T07:11:56;25.70;99.90
40996;DHT22;26723;57.478;12.066;2022-08-21T07:15:05;27.70;99.90
40996;DHT22;26723;57.478;12.066;2022-08-21T07:18:14;28.70;99.90
40996;DHT22;26723;57.478;12.066;2022-08-21T07:21:22;28.90;99.90
40996;DHT22;26723;57.478;12.066;2022-08-21T07:24:33;29.20;99.90
40996;DHT22;26723;57.478;12.066;2022-08-21T07:27:41;29.60;99.90
40996;DHT22;26723;57.478;12.066;2022-08-21T07:30:51;28.40;99.90
40996;DHT22;26723;57.478;12.066;2022-08-21T07:34:00;26.80;99.90
40996;DHT22;26723;57.478;12.066;2022-08-21T07:37:08;26.90;99.90
40996;DHT22;26723;57.478;12.066;2022-08-21T07:40:18;26.80;99.90
40996;DHT22;26723;57.478;12.066;2022-08-21T07:43:26;27.50;99.90
40996;DHT22;26723;57.478;12.066;2022-08-21T07:46:34;27.40;99.90
40996;DHT22;26723;57.478;12.066;2022-08-21T07:49:43;27.60;99.90
40996;DHT22;26723;57.478;12.066;2022-08-21T07:52:53;27.10;99.90
40996;DHT22;26723;57.478;12.066;2022-08-21T07:56:03;26.50;99.90
40996;DHT22;26723;57.478;12.066;2022-08-21T07:59:12;27.10;99.90
40996;DHT22;26723;57.478;12.066;2022-08-21T08:02:24;27.00;99.90
40996;DHT22;26723;57.478;12.066;2022-08-21T08:05:32;27.10;99.90
40996;DHT22;26723;57.478;12.066;2022-08-21T08:08:44;27.70;99.90
40996;DHT22;26723;57.478;12.066;2022-08-21T08:11:54;27.70;99.90
40996;DHT22;26723;57.478;12.066;2022-08-21T08:15:04;27.10;99.90
40996;DHT22;26723;57.478;12.066;2022-08-21T08:18:13;25.90;99.90
40996;DHT22;26723;57.478;12.066;2022-08-21T08:21:22;25.60;99.90
40996;DHT22;26723;57.478;12.066;2022-08-21T08:24:30;25.90;99.90
40996;DHT22;26723;57.478;12.066;2022-08-21T08:27:40;25.30;99.90
40996;DHT22;26723;57.478;12.066;2022-08-21T08:30:48;25.20;99.90
40996;DHT22;26723;57.478;12.066;2022-08-21T08:33:57;26.40;99.90
40996;DHT22;26723;57.478;12.066;2022-08-21T08:37:07;26.90;99.90
40996;DHT22;26723;57.478;12.066;2022-08-21T08:40:20;27.00;99.90
40996;DHT22;26723;57.478;12.066;2022-08-21T08:43:33;27.00;99.90
40996;DHT22;26723;57.478;12.066;2022-08-21T08:46:44;27.10;99.90
40996;DHT22;26723;57.478;12.066;2022-08-21T08:50:00;27.60;99.90
40996;DHT22;26723;57.478;12.066;2022-08-21T08:53:13;28.30;99.90
40996;DHT22;26723;57.478;12.066;2022-08-21T08:56:31;28.00;99.90
40996;DHT22;26723;57.478;12.066;2022-08-21T08:59:46;28.10;99.90
40996;DHT22;26723;57.478;12.066;2022-08-21T09:02:57;28.60;99.90
40996;DHT22;26723;57.478;12.066;2022-08-21T09:06:16;28.40;99.90
40996;DHT22;26723;57.478;12.066;2022-08-21T09:09:34;28.80;99.90
40996;DHT22;26723;57.478;12.066;2022-08-21T09:13:02;28.40;99.90
40996;DHT22;26723;57.478;12.066;2022-08-21T09:16:21;28.50;99.90
40996;DHT22;26723;57.478;12.066;2022-08-21T09:19:45;28.80;99.90
40996;DHT22;26723;57.478;12.066;2022-08-21T09:23:03;28.80;99.90
40996;DHT22;26723;57.478;12.066;2022-08-21T09:26:14;28.80;99.90
40996;DHT22;26723;57.478;12.066;2022-08-21T09:29:25;28.50;99.90
40996;DHT22;26723;57.478;12.066;2022-08-21T09:32:39;28.80;99.90
40996;DHT22;26723;57.478;12.066;2022-08-21T09:35:50;28.40;99.90
40996;DHT22;26723;57.478;12.066;2022-08-21T09:38:59;28.00;99.90
40996;DHT22;26723;57.478;12.066;2022-08-21T09:42:09;28.20;99.90
40996;DHT22;26723;57.478;12.066;2022-08-21T09:45:18;28.40;99.90
40996;DHT22;26723;57.478;12.066;2022-08-21T09:48:28;27.40;99.90
40996;DHT22;26723;57.478;12.066;2022-08-21T09:51:50;28.00;99.90
40996;DHT22;26723;57.478;12.066;2022-08-21T09:54:59;27.90;99.90
40996;DHT22;26723;57.478;12.066;2022-08-21T09:58:31;27.70;99.90
40996;DHT22;26723;57.478;12.066;2022-08-21T10:01:43;27.60;99.90
40996;DHT22;26723;57.478;12.066;2022-08-21T10:04:54;27.50;99.90
40996;DHT22;26723;57.478;12.066;2022-08-21T10:08:03;27.10;99.90
40996;DHT22;26723;57.478;12.066;2022-08-21T10:11:14;27.00;99.90
40996;DHT22;26723;57.478;12.066;2022-08-21T10:14:35;27.30;99.90
40996;DHT22;26723;57.478;12.066;2022-08-21T10:17:56;27.10;99.90
40996;DHT22;26723;57.478;12.066;2022-08-21T10:21:19;27.10;99.90
40996;DHT22;26723;57.478;12.066;2022-08-21T10:24:31;26.60;99.90
40996;DHT22;26723;57.478;12.066;2022-08-21T10:27:49;26.60;99.90
40996;DHT22;26723;57.478;12.066;2022-08-21T10:31:07;26.50;99.90
40996;DHT22;26723;57.478;12.066;2022-08-21T10:34:25;26.70;99.90
40996;DHT22;26723;57.478;12.066;2022-08-21T10:37:48;26.70;99.90
40996;DHT22;26723;57.478;12.066;2022-08-21T10:41:02;25.80;99.90
40996;DHT22;26723;57.478;12.066;2022-08-21T10:44:19;25.20;99.90
40996;DHT22;26723;57.478;12.066;2022-08-21T10:47:34;25.30;99.90
40996;DHT22;26723;57.478;12.066;2022-08-21T10:50:48;24.90;99.90
40996;DHT22;26723;57.478;12.066;2022-08-21T10:54:07;25.30;99.90
40996;DHT22;26723;57.478;12.066;2022-08-21T10:57:26;25.50;99.90
40996;DHT22;26723;57.478;12.066;2022-08-21T11:00:41;25.40;99.90
40996;DHT22;26723;57.478;12.066;2022-08-21T11:03:55;25.10;99.90
40996;DHT22;26723;57.478;12.066;2022-08-21T11:07:22;24.20;99.90
40996;DHT22;26723;57.478;12.066;2022-08-21T11:10:46;24.40;99.90
40996;DHT22;26723;57.478;12.066;2022-08-21T11:14:11;24.50;99.90
40996;DHT22;26723;57.478;12.066;2022-08-21T11:17:24;24.00;99.90
40996;DHT22;26723;57.478;12.066;2022-08-21T11:20:40;24.20;99.90
40996;DHT22;26723;57.478;12.066;2022-08-21T11:23:57;24.10;99.90
40996;DHT22;26723;57.478;12.066;2022-08-21T11:27:20;23.70;99.90
40996;DHT22;26723;57.478;12.066;2022-08-21T11:30:39;23.50;99.90
40996;DHT22;26723;57.478;12.066;2022-08-21T11:34:01;23.70;99.90
40996;DHT22;26723;57.478;12.066;2022-08-21T11:37:18;23.80;99.90
40996;DHT22;26723;57.478;12.066;2022-08-21T11:40:44;23.80;99.90
40996;DHT22;26723;57.478;12.066;2022-08-21T11:44:02;23.90;99.90
40996;DHT22;26723;57.478;12.066;2022-08-21T11:47:15;24.20;99.90
40996;DHT22;26723;57.478;12.066;2022-08-21T11:50:29;24.20;99.90
40996;DHT22;26723;57.478;12.066;2022-08-21T11:53:46;23.50;99.90
40996;DHT22;26723;57.478;12.066;2022-08-21T11:57:03;23.70;99.90
40996;DHT22;26723;57.478;12.066;2022-08-21T12:00:19;23.70;99.90
40996;DHT22;26723;57.478;12.066;2022-08-21T12:03:30;23.00;99.90
40996;DHT22;26723;57.478;12.066;2022-08-21T12:06:40;22.90;99.90
40996;DHT22;26723;57.478;12.066;2022-08-21T12:09:53;22.90;99.90
40996;DHT22;26723;57.478;12.066;2022-08-21T12:13:22;22.80;99.90
40996;DHT22;26723;57.478;12.066;2022-08-21T12:16:50;22.70;99.90
40996;DHT22;26723;57.478;12.066;2022-08-21T12:19:59;22.90;99.90
40996;DHT22;26723;57.478;12.066;2022-08-21T12:23:43;22.60;99.90
40996;DHT22;26723;57.478;12.066;2022-08-21T12:26:53;22.50;99.90
40996;DHT22;26723;57.478;12.066;2022-08-21T12:30:05;22.60;99.90
40996;DHT22;26723;57.478;12.066;2022-08-21T12:33:25;22.40;99.90
40996;DHT22;26723;57.478;12.066;2022-08-21T12:36:42;22.40;99.90
40996;DHT22;26723;57.478;12.066;2022-08-21T12:39:52;22.40;99.90
40996;DHT22;26723;57.478;12.066;2022-08-21T12:43:02;22.50;99.90
40996;DHT22;26723;57.478;12.066;2022-08-21T12:46:17;22.40;99.90
40996;DHT22;26723;57.478;12.066;2022-08-21T12:49:31;22.50;99.90
40996;DHT22;26723;57.478;12.066;2022-08-21T12:52:48;22.50;99.90
40996;DHT22;26723;57.478;12.066;2022-08-21T12:56:02;22.20;99.90
40996;DHT22;26723;57.478;12.066;2022-08-21T12:59:12;22.10;99.90
40996;DHT22;26723;57.478;12.066;2022-08-21T13:02:22;22.00;99.90
40996;DHT22;26723;57.478;12.066;2022-08-21T13:05:35;21.90;99.90
40996;DHT22;26723;57.478;12.066;2022-08-21T13:08:45;22.00;99.90
40996;DHT22;26723;57.478;12.066;2022-08-21T13:11:54;21.90;99.90
40996;DHT22;26723;57.478;12.066;2022-08-21T13:15:05;21.90;99.90
40996;DHT22;26723;57.478;12.066;2022-08-21T13:18:21;21.70;99.90
40996;DHT22;26723;57.478;12.066;2022-08-21T13:21:34;21.60;99.90
40996;DHT22;26723;57.478;12.066;2022-08-21T13:24:47;21.50;99.90
40996;DHT22;26723;57.478;12.066;2022-08-21T13:27:59;21.40;99.90
40996;DHT22;26723;57.478;12.066;2022-08-21T13:31:09;21.40;99.90
40996;DHT22;26723;57.478;12.066;2022-08-21T13:34:22;21.50;99.90
40996;DHT22;26723;57.478;12.066;2022-08-21T13:37:33;21.70;99.90
40996;DHT22;26723;57.478;12.066;2022-08-21T13:40:46;21.80;99.90
40996;DHT22;26723;57.478;12.066;2022-08-21T13:43:58;21.70;99.90
40996;DHT22;26723;57.478;12.066;2022-08-21T13:47:10;21.80;99.90
40996;DHT22;26723;57.478;12.066;2022-08-21T13:50:23;21.80;99.90
40996;DHT22;26723;57.478;12.066;2022-08-21T13:53:43;21.60;99.90
40996;DHT22;26723;57.478;12.066;2022-08-21T13:56:53;21.40;99.90
40996;DHT22;26723;57.478;12.066;2022-08-21T14:00:14;21.40;99.90
40996;DHT22;26723;57.478;12.066;2022-08-21T14:03:30;21.30;99.90
40996;DHT22;26723;57.478;12.066;2022-08-21T14:06:39;21.20;99.90
40996;DHT22;26723;57.478;12.066;2022-08-21T14:09:49;21.00;99.90
40996;DHT22;26723;57.478;12.066;2022-08-21T14:12:59;21.10;99.90
40996;DHT22;26723;57.478;12.066;2022-08-21T14:16:15;20.90;99.90
40996;DHT22;26723;57.478;12.066;2022-08-21T14:19:26;20.90;99.90
40996;DHT22;26723;57.478;12.066;2022-08-21T14:22:38;20.70;99.90
40996;DHT22;26723;57.478;12.066;2022-08-21T14:25:48;20.80;99.90
40996;DHT22;26723;57.478;12.066;2022-08-21T14:28:59;20.60;99.90
40996;DHT22;26723;57.478;12.066;2022-08-21T14:32:19;20.60;99.90
40996;DHT22;26723;57.478;12.066;2022-08-21T14:35:31;20.60;99.90
40996;DHT22;26723;57.478;12.066;2022-08-21T14:38:40;20.70;99.90
40996;DHT22;26723;57.478;12.066;2022-08-21T14:41:51;20.80;99.90
40996;DHT22;26723;57.478;12.066;2022-08-21T14:45:07;20.80;99.90
40996;DHT22;26723;57.478;12.066;2022-08-21T14:48:18;20.80;99.90
40996;DHT22;26723;57.478;12.066;2022-08-21T14:51:27;20.90;99.90
40996;DHT22;26723;57.478;12.066;2022-08-21T14:54:35;21.00;99.90
40996;DHT22;26723;57.478;12.066;2022-08-21T14:57:46;21.20;99.90
40996;DHT22;26723;57.478;12.066;2022-08-21T15:00:55;21.40;99.90
40996;DHT22;26723;57.478;12.066;2022-08-21T15:04:05;21.40;99.90
40996;DHT22;26723;57.478;12.066;2022-08-21T15:07:13;21.40;99.90
40996;DHT22;26723;57.478;12.066;2022-08-21T15:10:21;21.40;99.90
40996;DHT22;26723;57.478;12.066;2022-08-21T15:13:31;21.50;99.90
40996;DHT22;26723;57.478;12.066;2022-08-21T15:16:39;21.50;99.90
40996;DHT22;26723;57.478;12.066;2022-08-21T15:19:48;21.50;99.90
40996;DHT22;26723;57.478;12.066;2022-08-21T15:22:57;21.40;99.90
40996;DHT22;26723;57.478;12.066;2022-08-21T15:26:08;21.30;99.90
40996;DHT22;26723;57.478;12.066;2022-08-21T15:29:18;21.20;99.90
40996;DHT22;26723;57.478;12.066;2022-08-21T15:32:28;21.10;99.90
40996;DHT22;26723;57.478;12.066;2022-08-21T15:35:37;21.20;99.90
40996;DHT22;26723;57.478;12.066;2022-08-21T15:38:47;21.20;99.90
40996;DHT22;26723;57.478;12.066;2022-08-21T15:41:55;21.20;99.90
40996;DHT22;26723;57.478;12.066;2022-08-21T15:45:06;21.30;99.90
40996;DHT22;26723;57.478;12.066;2022-08-21T15:48:15;21.40;99.90
40996;DHT22;26723;57.478;12.066;2022-08-21T15:51:27;21.40;99.90
40996;DHT22;26723;57.478;12.066;2022-08-21T15:54:37;21.40;99.90
40996;DHT22;26723;57.478;12.066;2022-08-21T15:57:49;21.30;99.90
40996;DHT22;26723;57.478;12.066;2022-08-21T16:01:04;21.50;99.90
40996;DHT22;26723;57.478;12.066;2022-08-21T16:04:18;21.50;99.90
40996;DHT22;26723;57.478;12.066;2022-08-21T16:07:27;21.30;99.90
40996;DHT22;26723;57.478;12.066;2022-08-21T16:10:36;21.30;99.90
40996;DHT22;26723;57.478;12.066;2022-08-21T16:13:46;21.20;99.90
40996;DHT22;26723;57.478;12.066;2022-08-21T16:17:04;21.10;99.90
40996;DHT22;26723;57.478;12.066;2022-08-21T16:20:13;20.90;99.90
40996;DHT22;26723;57.478;12.066;2022-08-21T16:23:23;20.80;99.90
40996;DHT22;26723;57.478;12.066;2022-08-21T16:26:31;20.80;99.90
40996;DHT22;26723;57.478;12.066;2022-08-21T16:29:39;20.80;99.90
40996;DHT22;26723;57.478;12.066;2022-08-21T16:32:50;20.70;99.90
40996;DHT22;26723;57.478;12.066;2022-08-21T16:36:00;20.70;99.90
40996;DHT22;26723;57.478;12.066;2022-08-21T16:39:08;20.80;99.90
40996;DHT22;26723;57.478;12.066;2022-08-21T16:42:22;20.80;99.90
40996;DHT22;26723;57.478;12.066;2022-08-21T16:45:31;20.80;99.90
40996;DHT22;26723;57.478;12.066;2022-08-21T16:48:42;20.90;99.90
40996;DHT22;26723;57.478;12.066;2022-08-21T16:51:50;20.90;99.90
40996;DHT22;26723;57.478;12.066;2022-08-21T16:54:59;21.00;99.90
40996;DHT22;26723;57.478;12.066;2022-08-21T16:58:10;21.00;99.90
40996;DHT22;26723;57.478;12.066;2022-08-21T17:01:24;21.00;99.90
40996;DHT22;26723;57.478;12.066;2022-08-21T17:04:34;21.00;99.90
40996;DHT22;26723;57.478;12.066;2022-08-21T17:07:43;20.90;99.90
40996;DHT22;26723;57.478;12.066;2022-08-21T17:10:53;20.90;99.90
40996;DHT22;26723;57.478;12.066;2022-08-21T17:14:05;20.80;99.90
40996;DHT22;26723;57.478;12.066;2022-08-21T17:17:14;20.70;99.90
40996;DHT22;26723;57.478;12.066;2022-08-21T17:20:24;20.50;99.90
40996;DHT22;26723;57.478;12.066;2022-08-21T17:23:33;20.40;99.90
40996;DHT22;26723;57.478;12.066;2022-08-21T17:26:44;20.50;99.90
40996;DHT22;26723;57.478;12.066;2022-08-21T17:29:52;20.40;99.90
40996;DHT22;26723;57.478;12.066;2022-08-21T17:33:02;20.40;99.90
40996;DHT22;26723;57.478;12.066;2022-08-21T17:36:13;20.40;99.90
40996;DHT22;26723;57.478;12.066;2022-08-21T17:39:21;20.40;99.90
40996;DHT22;26723;57.478;12.066;2022-08-21T17:42:33;20.30;99.90
40996;DHT22;26723;57.478;12.066;2022-08-21T17:45:42;20.10;99.90
40996;DHT22;26723;57.478;12.066;2022-08-21T17:48:51;20.10;99.90
40996;DHT22;26723;57.478;12.066;2022-08-21T17:52:00;20.10;99.90
40996;DHT22;26723;57.478;12.066;2022-08-21T17:55:09;20.00;99.90
40996;DHT22;26723;57.478;12.066;2022-08-21T17:58:17;19.90;99.90
40996;DHT22;26723;57.478;12.066;2022-08-21T18:01:28;19.90;99.90
40996;DHT22;26723;57.478;12.066;2022-08-21T18:04:39;19.90;99.90
40996;DHT22;26723;57.478;12.066;2022-08-21T18:07:49;19.90;99.90
40996;DHT22;26723;57.478;12.066;2022-08-21T18:10:58;19.90;99.90
40996;DHT22;26723;57.478;12.066;2022-08-21T18:14:06;19.80;99.90
40996;DHT22;26723;57.478;12.066;2022-08-21T18:17:17;19.80;99.90
40996;DHT22;26723;57.478;12.066;2022-08-21T18:20:27;19.80;99.90
40996;DHT22;26723;57.478;12.066;2022-08-21T18:23:37;19.80;99.90
40996;DHT22;26723;57.478;12.066;2022-08-21T18:26:51;19.80;99.90
40996;DHT22;26723;57.478;12.066;2022-08-21T18:30:03;19.70;99.90
40996;DHT22;26723;57.478;12.066;2022-08-21T18:33:12;19.70;99.90
40996;DHT22;26723;57.478;12.066;2022-08-21T18:36:21;19.70;99.90
40996;DHT22;26723;57.478;12.066;2022-08-21T18:39:33;19.70;99.90
40996;DHT22;26723;57.478;12.066;2022-08-21T18:42:45;19.70;99.90
40996;DHT22;26723;57.478;12.066;2022-08-21T18:46:02;19.70;99.90
40996;DHT22;26723;57.478;12.066;2022-08-21T18:49:10;19.60;99.90
40996;DHT22;26723;57.478;12.066;2022-08-21T18:52:18;19.60;99.90
40996;DHT22;26723;57.478;12.066;2022-08-21T18:55:28;19.60;99.90
40996;DHT22;26723;57.478;12.066;2022-08-21T18:58:36;19.60;99.90
40996;DHT22;26723;57.478;12.066;2022-08-21T19:01:45;19.60;99.90
40996;DHT22;26723;57.478;12.066;2022-08-21T19:04:54;19.60;99.90
40996;DHT22;26723;57.478;12.066;2022-08-21T19:08:02;19.50;99.90
40996;DHT22;26723;57.478;12.066;2022-08-21T19:11:13;19.30;99.90
40996;DHT22;26723;57.478;12.066;2022-08-21T19:14:29;19.20;99.90
40996;DHT22;26723;57.478;12.066;2022-08-21T19:17:38;19.10;99.90
40996;DHT22;26723;57.478;12.066;2022-08-21T19:20:46;19.10;99.90
40996;DHT22;26723;57.478;12.066;2022-08-21T19:23:54;19.00;99.90
40996;DHT22;26723;57.478;12.066;2022-08-21T19:27:05;19.00;99.90
40996;DHT22;26723;57.478;12.066;2022-08-21T19:30:14;18.90;99.90
40996;DHT22;26723;57.478;12.066;2022-08-21T19:33:25;18.80;99.90
40996;DHT22;26723;57.478;12.066;2022-08-21T19:36:35;18.80;99.90
40996;DHT22;26723;57.478;12.066;2022-08-21T19:39:43;18.70;99.90
40996;DHT22;26723;57.478;12.066;2022-08-21T19:42:58;18.70;99.90
40996;DHT22;26723;57.478;12.066;2022-08-21T19:46:06;18.60;99.90
40996;DHT22;26723;57.478;12.066;2022-08-21T19:49:18;18.60;99.90